Terminal Aerodrome Forecast
Issued by NWS

Home | Current Version | Previous Version | Text Only | Print | Product List | Glossary On
Versions: 1 2 3 4 5 6 7 8 9 10 11 12 13 14 15
713
FTUS42 KMLB 280534
TAFFPR
TAF
KFPR 280534Z 2806/2906 05003KT P6SM VCSH SCT040
     FM281400 06010KT P6SM SCT035=

USA.gov is the U.S. government's official web portal to all federal, state and local government web resources and services.